Time;durP1;ratioP1;P1;durP2;ratioP2;P2;SDS_P1;SDS_P2;PMS_P1;PMS_P2;Temp;Humidity;BMP_temperature;BMP_pressure;BME280_temperature;BME280_humidity;BME280_pressure;Samples;Min_cycle;Max_cycle;Signal;HPM_P1;HPM_P2
2022/03/23 00:02:26;;;;;;;46.28;31.35;;;10.00;83.90;;;;;;6119323;23;99093;-74
2022/03/23 00:04:54;;;;;;;49.63;32.28;;;9.90;83.90;;;;;;6119121;23;99096;-74
2022/03/23 00:07:21;;;;;;;50.08;32.30;;;9.90;84.30;;;;;;6121691;22;98579;-74
2022/03/23 00:09:49;;;;;;;51.95;32.65;;;9.90;84.30;;;;;;6095606;23;97790;-74
2022/03/23 00:12:24;;;;;;;52.33;33.70;;;9.80;84.30;;;;;;6120780;23;99306;-74
2022/03/23 00:14:52;;;;;;;51.17;32.38;;;9.80;84.30;;;;;;6120606;23;99177;-74
2022/03/23 00:17:19;;;;;;;51.67;32.22;;;9.80;84.30;;;;;;6120804;22;99097;-74
2022/03/23 00:19:46;;;;;;;54.03;33.13;;;9.80;84.20;;;;;;6120301;23;102849;-74
2022/03/23 00:22:13;;;;;;;49.55;31.27;;;9.80;84.20;;;;;;6120845;23;99237;-74
2022/03/23 00:24:40;;;;;;;50.47;30.85;;;9.80;84.10;;;;;;6094388;23;101727;-74
2022/03/23 00:27:07;;;;;;;53.80;31.70;;;9.70;84.20;;;;;;6119694;23;98509;-74
2022/03/23 00:29:34;;;;;;;50.30;30.08;;;9.70;84.30;;;;;;6121255;23;98481;-74
2022/03/23 00:32:02;;;;;;;50.60;31.90;;;9.70;84.40;;;;;;6070340;23;101840;-74
2022/03/23 00:34:31;;;;;;;49.10;31.88;;;9.70;84.40;;;;;;6119465;23;101308;-74
2022/03/23 00:36:58;;;;;;;49.55;31.98;;;9.70;84.60;;;;;;6094624;23;98519;-74
2022/03/23 00:39:26;;;;;;;52.03;32.83;;;9.60;84.50;;;;;;6121399;22;98413;-74
2022/03/23 00:41:53;;;;;;;51.33;32.47;;;9.60;84.70;;;;;;6119955;22;99952;-74
2022/03/23 00:44:20;;;;;;;50.88;32.03;;;9.60;84.80;;;;;;6094516;23;102406;-74
2022/03/23 00:46:47;;;;;;;56.00;33.83;;;9.60;85.00;;;;;;6120515;23;98531;-74
2022/03/23 00:49:14;;;;;;;51.47;30.98;;;9.50;85.00;;;;;;6119082;23;98683;-74
2022/03/23 00:51:41;;;;;;;51.35;33.85;;;9.50;85.10;;;;;;6119045;23;99513;-74
2022/03/23 00:54:10;;;;;;;50.88;32.45;;;9.50;85.20;;;;;;6120715;22;98755;-74
2022/03/23 00:56:39;;;;;;;54.40;33.63;;;9.50;85.30;;;;;;6119207;23;98503;-74
2022/03/23 00:59:07;;;;;;;50.60;32.50;;;9.50;85.40;;;;;;6095257;23;97808;-74
2022/03/23 01:01:35;;;;;;;49.25;31.42;;;9.50;85.20;;;;;;6118503;23;101987;-74
2022/03/23 01:04:03;;;;;;;48.90;32.45;;;9.40;85.10;;;;;;6120314;23;99084;-74
2022/03/23 01:06:30;;;;;;;51.33;31.70;;;9.40;85.10;;;;;;6118844;23;99192;-74
2022/03/23 01:08:58;;;;;;;47.38;32.72;;;9.40;85.20;;;;;;6119061;23;98537;-74
2022/03/23 01:11:25;;;;;;;49.78;30.63;;;9.30;85.20;;;;;;6118611;23;102001;-74
2022/03/23 01:13:51;;;;;;;50.47;32.28;;;9.30;85.10;;;;;;6118661;23;103772;-74
2022/03/23 01:16:18;;;;;;;51.67;31.35;;;9.30;85.30;;;;;;6119441;23;98573;-74
2022/03/23 01:18:45;;;;;;;52.92;32.25;;;9.20;85.30;;;;;;6094500;23;98519;-74
2022/03/23 01:21:16;;;;;;;49.90;31.33;;;9.20;85.40;;;;;;6094196;23;101815;-74
2022/03/23 01:23:44;;;;;;;50.25;31.30;;;9.10;85.50;;;;;;6119355;23;101450;-74
2022/03/23 01:26:11;;;;;;;53.83;32.40;;;9.10;85.90;;;;;;6119334;23;98504;-74
2022/03/23 01:28:38;;;;;;;55.90;33.22;;;9.10;85.90;;;;;;6119265;23;98921;-74
2022/03/23 01:31:05;;;;;;;53.95;33.70;;;9.00;85.90;;;;;;6117696;23;102685;-74
2022/03/23 01:33:32;;;;;;;54.25;33.45;;;9.00;86.20;;;;;;6120436;23;99724;-74
2022/03/23 01:36:00;;;;;;;56.90;33.42;;;9.00;86.30;;;;;;6118626;23;98552;-74
2022/03/23 01:38:26;;;;;;;56.50;34.65;;;8.90;86.40;;;;;;6094644;23;99209;-74
2022/03/23 01:40:54;;;;;;;54.88;34.28;;;8.90;86.60;;;;;;6118144;23;102171;-74
2022/03/23 01:43:21;;;;;;;51.50;33.17;;;8.90;86.50;;;;;;6118088;23;101757;-73
2022/03/23 01:45:48;;;;;;;57.40;34.72;;;8.80;86.50;;;;;;6093977;23;98559;-72
2022/03/23 01:48:16;;;;;;;56.03;32.55;;;8.80;86.60;;;;;;6119313;22;98012;-73
2022/03/23 01:50:43;;;;;;;56.25;33.00;;;8.80;86.60;;;;;;6118659;23;99475;-74
2022/03/23 01:53:10;;;;;;;56.67;34.33;;;8.80;86.80;;;;;;6118387;23;99175;-74
2022/03/23 01:55:37;;;;;;;56.97;35.05;;;8.80;86.70;;;;;;6093901;23;99770;-74
2022/03/23 01:58:04;;;;;;;54.63;33.33;;;8.70;86.50;;;;;;6118672;23;98650;-74
2022/03/23 02:00:35;;;;;;;55.78;34.60;;;8.70;86.50;;;;;;6120111;23;99191;-74
2022/03/23 02:03:03;;;;;;;56.20;34.15;;;8.70;86.70;;;;;;6119749;23;98900;-74
2022/03/23 02:05:31;;;;;;;54.67;33.92;;;8.70;86.80;;;;;;6094374;23;98489;-74
2022/03/23 02:07:58;;;;;;;59.42;34.83;;;8.60;87.00;;;;;;6118485;23;98497;-74
2022/03/23 02:10:28;;;;;;;61.40;36.08;;;8.60;87.00;;;;;;6118178;23;101602;-74
2022/03/23 02:13:16;;;;;;;65.35;35.88;;;8.50;86.90;;;;;;6119476;23;100304;-74
2022/03/23 02:15:43;;;;;;;62.85;36.15;;;8.50;87.10;;;;;;6120532;23;98914;-74
2022/03/23 02:18:10;;;;;;;61.13;36.03;;;8.50;87.10;;;;;;6095294;23;98552;-74
2022/03/23 02:20:38;;;;;;;56.95;35.33;;;8.40;87.30;;;;;;6119227;23;102217;-74
2022/03/23 02:23:05;;;;;;;63.22;36.55;;;8.40;87.40;;;;;;6094960;23;102161;-74
2022/03/23 02:25:32;;;;;;;58.28;35.60;;;8.40;87.40;;;;;;6121765;22;98396;-74
2022/03/23 02:28:00;;;;;;;57.08;35.90;;;8.30;87.20;;;;;;6121484;23;98447;-74
2022/03/23 02:30:27;;;;;;;54.40;34.97;;;8.30;87.40;;;;;;6121358;23;99066;-74
2022/03/23 02:32:54;;;;;;;58.97;35.60;;;8.30;87.60;;;;;;6119665;23;98699;-74
2022/03/23 02:35:21;;;;;;;61.17;34.80;;;8.30;87.70;;;;;;6095248;23;98477;-74
2022/03/23 02:37:48;;;;;;;58.78;35.50;;;8.20;87.90;;;;;;6122157;22;97706;-74
2022/03/23 02:40:15;;;;;;;61.25;35.90;;;8.20;88.10;;;;;;6119415;23;101735;-74
2022/03/23 02:42:42;;;;;;;58.72;35.92;;;8.20;88.30;;;;;;6121181;23;98968;-74
2022/03/23 02:45:12;;;;;;;60.05;34.65;;;8.20;88.40;;;;;;6119008;23;99239;-74
2022/03/23 02:47:41;;;;;;;56.60;34.92;;;8.20;88.20;;;;;;6121710;23;98345;-74
2022/03/23 02:50:09;;;;;;;52.67;32.83;;;8.10;88.20;;;;;;6118992;23;101781;-74
2022/03/23 03:01:51;;;;;;;57.08;34.53;;;8.10;88.10;;;;;;6095147;23;99220;-74
2022/03/23 03:04:02;;;;;;;58.05;34.88;;;8.00;88.20;;;;;;6121337;23;99060;-74
2022/03/23 03:06:29;;;;;;;55.35;34.78;;;8.00;88.20;;;;;;6121440;23;98467;-74
2022/03/23 03:08:56;;;;;;;56.67;34.28;;;8.00;88.20;;;;;;6095137;23;98526;-74
2022/03/23 03:11:25;;;;;;;58.90;34.72;;;7.90;88.20;;;;;;6118864;23;100918;-74
2022/03/23 03:13:52;;;;;;;57.55;36.60;;;7.90;88.10;;;;;;6121103;22;99671;-74
2022/03/23 03:16:19;;;;;;;56.28;34.30;;;7.90;88.10;;;;;;6119477;23;98530;-74
2022/03/23 03:18:46;;;;;;;62.03;36.20;;;7.90;88.40;;;;;;6120066;23;98510;-74
2022/03/23 03:21:14;;;;;;;62.65;37.78;;;7.80;88.30;;;;;;6118970;23;110440;-74
2022/03/23 03:23:42;;;;;;;58.53;35.70;;;7.80;88.40;;;;;;6119250;23;101468;-74
2022/03/23 03:26:14;;;;;;;60.17;35.80;;;7.80;88.40;;;;;;6119372;23;98540;-74
2022/03/23 03:28:42;;;;;;;59.35;35.17;;;7.80;88.50;;;;;;6122112;23;97806;-74
2022/03/23 03:31:11;;;;;;;62.70;36.58;;;7.70;88.70;;;;;;6119229;23;99141;-74
2022/03/23 03:33:39;;;;;;;60.47;35.08;;;7.70;88.80;;;;;;6119401;23;98926;-74
2022/03/23 03:36:06;;;;;;;62.20;36.40;;;7.70;88.90;;;;;;6118993;23;99296;-74
2022/03/23 03:38:34;;;;;;;59.10;34.13;;;7.70;88.90;;;;;;6119655;23;98593;-74
2022/03/23 03:41:02;;;;;;;57.85;36.20;;;7.70;88.70;;;;;;6121023;22;99249;-74
2022/03/23 03:43:30;;;;;;;60.40;36.13;;;7.70;88.90;;;;;;6119457;23;99031;-74
2022/03/23 03:45:58;;;;;;;71.00;37.40;;;7.70;89.10;;;;;;6119263;23;103384;-74
2022/03/23 03:48:25;;;;;;;63.55;36.42;;;7.60;89.20;;;;;;6118966;23;98539;-74
2022/03/23 03:50:53;;;;;;;69.20;38.78;;;7.60;89.20;;;;;;6119567;23;99785;-74
2022/03/23 03:53:20;;;;;;;61.53;38.25;;;7.60;89.40;;;;;;6121143;22;98924;-74
2022/03/23 03:55:52;;;;;;;60.92;37.42;;;7.60;89.40;;;;;;6120079;23;98463;-74
2022/03/23 03:58:21;;;;;;;67.15;37.50;;;7.60;89.30;;;;;;6121217;23;98690;-74
2022/03/23 04:00:48;;;;;;;61.72;36.60;;;7.50;89.20;;;;;;6118865;23;99940;-74
2022/03/23 04:03:15;;;;;;;71.05;37.38;;;7.50;89.20;;;;;;6120684;23;99701;-74
2022/03/23 04:05:42;;;;;;;65.30;38.22;;;7.50;89.30;;;;;;6119111;23;98878;-74
2022/03/23 04:08:09;;;;;;;64.95;37.30;;;7.50;89.50;;;;;;6121266;22;98478;-74
2022/03/23 04:10:36;;;;;;;65.55;38.58;;;7.50;89.40;;;;;;6119591;23;99176;-74
2022/03/23 04:13:07;;;;;;;64.60;37.47;;;7.40;89.30;;;;;;6119982;23;114718;-74
2022/03/23 04:15:36;;;;;;;67.80;39.22;;;7.40;89.40;;;;;;6121288;23;98426;-74
2022/03/23 04:18:03;;;;;;;71.13;37.78;;;7.40;89.30;;;;;;6121764;22;97833;-74
2022/03/23 04:20:30;;;;;;;58.28;37.50;;;7.40;89.40;;;;;;6094211;23;101957;-74
2022/03/23 04:22:58;;;;;;;62.33;35.97;;;7.40;89.20;;;;;;6119233;23;100241;-74
2022/03/23 04:25:25;;;;;;;64.70;36.58;;;7.40;89.20;;;;;;6119042;23;99138;-74
2022/03/23 04:27:55;;;;;;;63.58;37.05;;;7.30;89.30;;;;;;6119696;23;98557;-74
2022/03/23 04:30:27;;;;;;;61.35;35.88;;;7.30;89.30;;;;;;6120486;23;99243;-74
2022/03/23 04:32:54;;;;;;;64.15;36.03;;;7.30;89.50;;;;;;6120626;22;98953;-74
2022/03/23 04:35:22;;;;;;;63.90;37.10;;;7.20;89.50;;;;;;6120345;23;106349;-74
2022/03/23 04:37:50;;;;;;;66.05;38.25;;;7.20;89.50;;;;;;6120854;22;98762;-74
2022/03/23 04:40:18;;;;;;;63.67;36.15;;;7.20;89.60;;;;;;6118646;23;100359;-74
2022/03/23 04:42:46;;;;;;;64.68;37.60;;;7.10;89.70;;;;;;6121381;22;98892;-74
2022/03/23 04:45:13;;;;;;;67.03;38.95;;;7.10;89.80;;;;;;6119347;23;98536;-74
2022/03/23 04:47:41;;;;;;;67.20;39.40;;;7.00;90.00;;;;;;6119463;23;98407;-74
2022/03/23 04:50:10;;;;;;;66.97;38.33;;;7.00;90.10;;;;;;6120070;23;100026;-74
2022/03/23 04:52:42;;;;;;;65.18;38.50;;;7.00;90.10;;;;;;6120532;22;99844;-74
2022/03/23 04:55:11;;;;;;;64.70;37.75;;;7.00;90.20;;;;;;6121123;22;98475;-74
2022/03/23 04:57:39;;;;;;;64.53;36.63;;;7.00;90.20;;;;;;6119748;23;98963;-74
2022/03/23 05:00:10;;;;;;;66.13;38.53;;;6.90;90.10;;;;;;6093825;23;111213;-74
2022/03/23 05:02:44;;;;;;;62.95;36.10;;;6.90;90.10;;;;;;6120726;23;99027;-74
2022/03/23 05:05:11;;;;;;;68.50;38.78;;;6.90;90.20;;;;;;6120994;23;98397;-74
2022/03/23 05:07:43;;;;;;;64.35;35.65;;;6.90;90.30;;;;;;6119691;23;97745;-74
2022/03/23 05:10:12;;;;;;;63.38;39.25;;;6.90;90.40;;;;;;6118246;23;101725;-74
2022/03/23 05:12:41;;;;;;;69.40;39.70;;;6.80;90.50;;;;;;6118947;23;99064;-74
2022/03/23 05:15:09;;;;;;;65.78;38.17;;;6.80;90.50;;;;;;6120520;23;99283;-74
2022/03/23 05:17:37;;;;;;;66.78;39.30;;;6.80;90.60;;;;;;6120632;23;98516;-74
2022/03/23 05:20:05;;;;;;;73.28;40.13;;;6.80;90.60;;;;;;6118667;23;101940;-74
2022/03/23 05:22:33;;;;;;;76.80;43.47;;;6.80;90.60;;;;;;6118715;23;99047;-74
2022/03/23 05:25:00;;;;;;;68.45;41.28;;;6.80;90.70;;;;;;6121039;22;98553;-74
2022/03/23 05:27:27;;;;;;;68.53;40.10;;;6.80;90.80;;;;;;6120821;23;98456;-73
2022/03/23 05:29:54;;;;;;;78.68;44.42;;;6.80;90.70;;;;;;6118208;23;114807;-73
2022/03/23 05:32:20;;;;;;;77.50;41.58;;;6.80;90.80;;;;;;6119282;23;99077;-73
2022/03/23 05:34:49;;;;;;;72.53;41.22;;;6.70;90.80;;;;;;6120726;23;98447;-72
2022/03/23 05:37:17;;;;;;;75.93;42.63;;;6.80;90.80;;;;;;6119334;23;98667;-73
2022/03/23 05:39:45;;;;;;;68.15;40.00;;;6.80;90.80;;;;;;6118304;23;100022;-73
2022/03/23 05:42:13;;;;;;;70.43;41.80;;;6.80;90.80;;;;;;6119025;23;99900;-72
2022/03/23 05:44:40;;;;;;;67.60;41.60;;;6.80;90.80;;;;;;6120429;22;98532;-72
2022/03/23 05:47:07;;;;;;;68.93;40.72;;;6.80;90.80;;;;;;6120642;22;98398;-73
2022/03/23 05:49:34;;;;;;;72.82;40.45;;;6.90;90.90;;;;;;6120408;23;99134;-72
2022/03/23 05:52:02;;;;;;;69.93;40.45;;;6.90;90.80;;;;;;6119689;23;102046;-72
2022/03/23 05:54:29;;;;;;;64.57;39.38;;;6.90;90.80;;;;;;6121658;22;98868;-73
2022/03/23 05:56:56;;;;;;;60.85;37.00;;;7.00;90.70;;;;;;6122360;22;97714;-72
2022/03/23 05:59:23;;;;;;;63.03;38.22;;;7.00;90.60;;;;;;6118525;23;120804;-72
2022/03/23 06:01:50;;;;;;;63.92;37.22;;;7.10;90.50;;;;;;6121375;23;98932;-72
2022/03/23 06:04:17;;;;;;;57.42;36.40;;;7.10;90.50;;;;;;6121161;23;99202;-73
2022/03/23 06:06:44;;;;;;;53.13;35.72;;;7.30;90.50;;;;;;6095133;23;98530;-72
2022/03/23 06:09:12;;;;;;;50.45;32.40;;;7.50;90.40;;;;;;6095020;23;101866;-72
2022/03/23 06:11:39;;;;;;;49.35;33.28;;;7.70;90.30;;;;;;6119579;23;99048;-73
2022/03/23 06:14:06;;;;;;;53.35;35.30;;;8.00;89.90;;;;;;6095365;23;99016;-72
2022/03/23 06:16:33;;;;;;;49.78;35.35;;;8.20;88.80;;;;;;6121512;23;98493;-73
2022/03/23 06:19:00;;;;;;;46.45;31.20;;;8.50;88.00;;;;;;6121303;23;99245;-73
2022/03/23 06:21:28;;;;;;;52.78;33.28;;;8.80;87.10;;;;;;6121516;22;98785;-73
2022/03/23 06:23:56;;;;;;;48.28;34.13;;;9.00;86.20;;;;;;6120262;23;98452;-73
2022/03/23 06:26:23;;;;;;;49.17;33.40;;;9.30;85.50;;;;;;6120111;23;99341;-73
2022/03/23 06:28:50;;;;;;;47.03;31.27;;;9.60;84.40;;;;;;6120722;23;100566;-73
2022/03/23 06:31:17;;;;;;;42.75;32.83;;;9.80;83.60;;;;;;6120033;22;99847;-73
2022/03/23 06:33:44;;;;;;;43.78;33.05;;;10.10;82.90;;;;;;6121371;22;98483;-73
2022/03/23 06:36:11;;;;;;;42.25;30.85;;;10.40;82.10;;;;;;6121600;22;98511;-73
2022/03/23 06:38:38;;;;;;;40.83;32.38;;;10.70;81.00;;;;;;6120849;23;99120;-73
2022/03/23 06:41:07;;;;;;;46.88;33.88;;;11.00;79.90;;;;;;6121284;22;99134;-73
2022/03/23 06:43:34;;;;;;;42.33;34.17;;;11.40;78.80;;;;;;6095663;23;98430;-72
2022/03/23 06:46:02;;;;;;;39.08;33.60;;;11.80;78.50;;;;;;6121854;23;97733;-73
2022/03/23 06:48:29;;;;;;;40.58;33.40;;;12.20;76.90;;;;;;6120344;22;105775;-73
2022/03/23 06:50:56;;;;;;;41.05;33.13;;;12.50;75.40;;;;;;6121183;22;99124;-73
2022/03/23 06:53:24;;;;;;;41.13;32.33;;;12.80;74.10;;;;;;6121383;22;99131;-73
2022/03/23 06:55:50;;;;;;;40.70;33.05;;;13.10;73.30;;;;;;6121494;22;98491;-73
2022/03/23 06:58:17;;;;;;;40.85;34.53;;;13.20;72.10;;;;;;6119735;22;99144;-73
2022/03/23 07:00:44;;;;;;;39.38;32.92;;;13.30;71.60;;;;;;6119103;23;99153;-73
2022/03/23 07:03:11;;;;;;;41.70;33.00;;;13.40;71.10;;;;;;6121399;23;98510;-73
2022/03/23 07:05:38;;;;;;;36.08;29.05;;;13.50;70.00;;;;;;6121221;23;98361;-73
2022/03/23 07:10:53;;;;;;;33.83;27.65;;;14.00;66.90;;;;;;6121727;23;98746;-73
2022/03/23 07:13:20;;;;;;;34.78;27.92;;;14.20;65.10;;;;;;6095063;23;98937;-73
2022/03/23 07:15:47;;;;;;;31.38;27.33;;;14.30;63.10;;;;;;6094767;23;98636;-73
2022/03/23 07:18:15;;;;;;;33.13;27.15;;;14.40;62.30;;;;;;6094022;23;101975;-73
2022/03/23 07:20:42;;;;;;;36.33;28.10;;;14.40;61.80;;;;;;6120668;23;99911;-73
2022/03/23 07:23:09;;;;;;;31.13;26.70;;;14.50;61.00;;;;;;6119965;23;98562;-73
2022/03/23 07:25:36;;;;;;;31.60;25.35;;;14.60;60.40;;;;;;6121162;23;98505;-73
2022/03/23 07:28:04;;;;;;;32.38;26.75;;;14.90;60.30;;;;;;6120959;22;99236;-73
2022/03/23 07:30:35;;;;;;;28.17;25.15;;;15.20;57.80;;;;;;6119568;23;99131;-73
2022/03/23 07:33:03;;;;;;;31.08;25.95;;;15.50;55.40;;;;;;6121392;22;98413;-73
2022/03/23 07:35:30;;;;;;;33.47;26.20;;;15.70;53.30;;;;;;6120069;23;97682;-73
2022/03/23 07:37:57;;;;;;;29.33;26.23;;;15.80;52.60;;;;;;6094589;23;109860;-73
2022/03/23 07:40:24;;;;;;;28.92;25.77;;;16.00;51.20;;;;;;6120905;22;99984;-73
2022/03/23 07:42:51;;;;;;;27.77;25.02;;;16.20;51.20;;;;;;6120679;22;99203;-73
2022/03/23 07:45:18;;;;;;;27.80;24.50;;;16.60;48.90;;;;;;6121413;22;98471;-73
2022/03/23 07:47:45;;;;;;;26.60;24.05;;;17.00;48.10;;;;;;6119118;23;99187;-73
2022/03/23 07:50:12;;;;;;;29.08;26.33;;;17.40;45.60;;;;;;6118909;23;98936;-73
2022/03/23 07:52:39;;;;;;;28.60;25.88;;;17.70;45.00;;;;;;6094623;23;98538;-73
2022/03/23 07:55:06;;;;;;;28.92;26.25;;;18.00;44.20;;;;;;6119755;23;98535;-73
2022/03/23 07:57:34;;;;;;;29.17;26.30;;;18.50;43.30;;;;;;6094292;23;109747;-73
2022/03/23 08:00:01;;;;;;;29.48;26.52;;;18.90;41.80;;;;;;6121294;23;99146;-73
2022/03/23 08:02:38;;;;;;;30.40;27.55;;;19.40;40.90;;;;;;6121056;22;98543;-73
2022/03/23 08:05:06;;;;;;;30.40;27.77;;;19.90;38.60;;;;;;6119998;23;98522;-73
2022/03/23 08:07:33;;;;;;;31.70;28.98;;;20.30;37.00;;;;;;6120359;22;100075;-74
2022/03/23 08:10:00;;;;;;;32.85;29.90;;;20.70;36.50;;;;;;6118986;23;99567;-73
2022/03/23 08:12:27;;;;;;;31.25;28.73;;;21.00;35.60;;;;;;6119214;23;98417;-74
2022/03/23 08:14:54;;;;;;;30.85;28.23;;;21.40;35.10;;;;;;6094664;23;99006;-74
2022/03/23 08:17:21;;;;;;;31.27;28.83;;;21.80;33.80;;;;;;6119253;23;99355;-73
2022/03/23 08:20:32;;;;;;;32.47;29.80;;;22.10;34.00;;;;;;6120454;22;99009;-73
2022/03/23 08:22:35;;;;;;;29.20;26.70;;;22.30;33.10;;;;;;6121255;22;98386;-74
2022/03/23 08:25:02;;;;;;;30.20;27.65;;;22.50;32.40;;;;;;6119934;23;97731;-74
2022/03/23 08:27:29;;;;;;;29.90;27.20;;;22.50;30.80;;;;;;6119207;23;99166;-75
2022/03/23 08:29:56;;;;;;;29.25;26.70;;;22.60;31.50;;;;;;6120427;22;98922;-73
2022/03/23 08:32:26;;;;;;;29.75;27.30;;;22.60;31.70;;;;;;6120824;23;99621;-74
2022/03/23 08:34:53;;;;;;;26.45;23.95;;;22.70;31.50;;;;;;6119404;23;98632;-74
2022/03/23 08:37:20;;;;;;;24.38;22.25;;;22.60;30.80;;;;;;6120756;22;99067;-74
2022/03/23 08:39:47;;;;;;;24.67;22.48;;;22.40;31.00;;;;;;6120428;23;99103;-74
2022/03/23 08:42:27;;;;;;;26.17;22.70;;;22.20;30.80;;;;;;6119494;22;98503;-74
2022/03/23 08:45:04;;;;;;;25.13;22.67;;;21.90;30.50;;;;;;6095477;23;98422;-74
2022/03/23 08:47:49;;;;;;;26.75;24.05;;;21.20;32.20;;;;;;6119248;23;99221;-73
2022/03/23 08:50:16;;;;;;;25.50;23.05;;;20.80;33.30;;;;;;6118994;23;104591;-74
2022/03/23 08:56:19;;;;;;;23.05;20.58;;;20.00;32.60;;;;;;6121067;23;98476;-74
2022/03/23 08:58:49;;;;;;;25.55;22.98;;;19.30;34.80;;;;;;6119946;23;99988;-73
2022/03/23 09:01:17;;;;;;;24.67;22.17;;;18.90;35.60;;;;;;6094649;23;102313;-73
2022/03/23 09:03:45;;;;;;;25.17;20.40;;;18.60;36.30;;;;;;6094728;23;98946;-74
2022/03/23 09:06:12;;;;;;;22.40;19.25;;;18.30;36.90;;;;;;6119454;23;98581;-73
2022/03/23 09:08:39;;;;;;;20.42;18.33;;;18.10;37.10;;;;;;6120510;23;99483;-73
2022/03/23 09:11:06;;;;;;;23.92;20.90;;;17.80;38.20;;;;;;6120224;23;99457;-74
2022/03/23 09:13:33;;;;;;;21.20;18.95;;;17.70;37.90;;;;;;6120964;23;98716;-73
2022/03/23 09:16:01;;;;;;;21.67;19.35;;;17.50;38.40;;;;;;6094720;23;97769;-73
2022/03/23 09:18:28;;;;;;;22.33;20.00;;;17.50;38.20;;;;;;6118722;23;101807;-73
2022/03/23 09:20:56;;;;;;;21.35;19.17;;;17.40;39.10;;;;;;6120096;23;99014;-73
2022/03/23 09:23:26;;;;;;;21.40;18.92;;;17.30;39.60;;;;;;6120539;23;99237;-73
2022/03/23 09:25:53;;;;;;;21.17;18.95;;;17.20;39.50;;;;;;6118754;23;98572;-74
2022/03/23 09:28:21;;;;;;;21.50;19.30;;;17.30;39.70;;;;;;6118951;23;99194;-73
2022/03/23 09:30:51;;;;;;;21.00;18.58;;;17.20;39.10;;;;;;6118854;23;99167;-73
2022/03/23 09:33:18;;;;;;;20.85;18.73;;;17.20;38.40;;;;;;6119304;23;98544;-73
2022/03/23 09:35:45;;;;;;;22.05;19.83;;;17.20;38.70;;;;;;6118914;23;98683;-73
2022/03/23 09:38:13;;;;;;;19.95;18.00;;;17.20;39.50;;;;;;6120403;22;99287;-73
2022/03/23 09:40:41;;;;;;;21.85;19.55;;;17.20;38.20;;;;;;6119278;23;98946;-73
2022/03/23 09:43:11;;;;;;;20.33;18.30;;;17.20;37.70;;;;;;6118599;23;98665;-73
2022/03/23 09:48:42;;;;;;;19.60;17.50;;;17.20;37.60;;;;;;6117659;23;101120;-73
2022/03/23 09:51:18;;;;;;;18.67;16.77;;;17.30;37.80;;;;;;6108917;23;99678;-73
2022/03/23 09:53:45;;;;;;;19.15;17.25;;;17.20;36.00;;;;;;6094545;23;98891;-73
2022/03/23 09:56:13;;;;;;;22.95;18.63;;;17.20;35.80;;;;;;6093985;23;98499;-74
2022/03/23 09:58:43;;;;;;;19.45;17.45;;;17.20;36.60;;;;;;6118326;23;101691;-73
2022/03/23 10:01:30;;;;;;;20.73;17.38;;;17.20;35.30;;;;;;6118153;23;101502;-73
2022/03/23 10:04:27;;;;;;;21.02;18.35;;;17.30;35.50;;;;;;6118757;23;99084;-73
2022/03/23 10:07:14;;;;;;;20.55;18.35;;;17.30;36.30;;;;;;6016222;23;97821;-73
2022/03/23 10:10:12;;;;;;;20.05;17.85;;;17.30;37.10;;;;;;6118406;23;101811;-73
2022/03/23 10:12:58;;;;;;;18.60;16.63;;;17.30;35.10;;;;;;6118222;23;100127;-73
2022/03/23 10:15:39;;;;;;;18.70;16.80;;;17.30;35.80;;;;;;6119863;23;99107;-73
2022/03/23 10:18:37;;;;;;;17.42;15.73;;;17.40;34.90;;;;;;6118659;23;98513;-73
2022/03/23 10:21:07;;;;;;;19.30;17.35;;;17.40;32.70;;;;;;6118034;23;101893;-73
2022/03/23 10:23:34;;;;;;;18.92;16.25;;;17.40;32.80;;;;;;6117925;23;101583;-73
2022/03/23 10:26:12;;;;;;;17.17;15.48;;;17.40;32.30;;;;;;6120062;22;98448;-73
2022/03/23 10:28:39;;;;;;;16.17;14.57;;;17.50;32.50;;;;;;6118933;23;98486;-73
2022/03/23 10:31:17;;;;;;;18.23;15.95;;;17.40;32.20;;;;;;6092955;23;101959;-74
2022/03/23 10:33:55;;;;;;;19.80;14.80;;;17.60;31.60;;;;;;6094473;23;99078;-73
2022/03/23 10:36:26;;;;;;;16.90;15.20;;;17.50;32.30;;;;;;6121398;22;98440;-73
2022/03/23 10:39:03;;;;;;;17.13;15.43;;;17.50;31.80;;;;;;6096271;23;99008;-73
2022/03/23 10:41:30;;;;;;;15.40;13.80;;;17.60;31.80;;;;;;6119256;23;100966;-73
2022/03/23 10:43:58;;;;;;;18.77;14.63;;;17.60;32.30;;;;;;6119519;23;99683;-73
2022/03/23 10:46:25;;;;;;;18.67;15.60;;;17.70;31.90;;;;;;6095234;23;98482;-73
2022/03/23 10:49:02;;;;;;;16.88;15.07;;;17.80;31.50;;;;;;6119776;23;98498;-73
2022/03/23 10:51:34;;;;;;;16.33;14.60;;;17.90;30.80;;;;;;6121134;22;99289;-73
2022/03/23 10:54:13;;;;;;;16.95;14.23;;;17.90;32.30;;;;;;6120872;23;99051;-73
2022/03/23 10:56:41;;;;;;;15.38;13.63;;;18.00;32.30;;;;;;6121816;22;98463;-73
2022/03/23 10:59:22;;;;;;;15.77;14.05;;;17.90;31.80;;;;;;6120344;23;97801;-73
2022/03/23 11:02:04;;;;;;;18.75;15.70;;;18.00;32.60;;;;;;6121106;22;100248;-73
2022/03/23 11:04:46;;;;;;;16.27;14.68;;;18.10;33.10;;;;;;6121186;22;99128;-73
2022/03/23 11:07:25;;;;;;;18.38;15.77;;;18.20;32.90;;;;;;6119295;23;99231;-73
2022/03/23 11:18:22;;;;;;;17.67;15.93;;;18.30;33.70;;;;;;6119558;23;98634;-73
2022/03/23 11:20:57;;;;;;;18.90;14.13;;;18.30;32.90;;;;;;6121582;22;98373;-73
2022/03/23 11:23:26;;;;;;;16.92;14.20;;;18.50;32.60;;;;;;6094537;23;101882;-73
2022/03/23 11:26:01;;;;;;;17.25;13.95;;;18.40;32.50;;;;;;6121566;22;98663;-73
2022/03/23 11:28:35;;;;;;;15.85;14.20;;;18.50;31.60;;;;;;6120031;23;98463;-73
2022/03/23 11:31:04;;;;;;;;;;;18.50;31.70;;;;;;6120254;23;98392;-73
2022/03/23 11:33:32;;;;;;;15.43;13.73;;;18.50;31.70;;;;;;6122697;22;100001;-72
2022/03/23 11:36:00;;;;;;;16.63;13.18;;;18.50;31.40;;;;;;6118948;23;102778;-72
2022/03/23 11:38:27;;;;;;;15.85;12.70;;;18.60;31.30;;;;;;6095120;23;98920;-72
2022/03/23 11:40:56;;;;;;;16.58;13.57;;;18.70;31.00;;;;;;6121292;23;98454;-72
2022/03/23 11:43:25;;;;;;;16.00;12.32;;;18.70;30.70;;;;;;6118877;23;101922;-72
2022/03/23 11:46:12;;;;;;;20.30;12.63;;;18.70;30.50;;;;;;6097960;23;101436;-72
2022/03/23 11:49:10;;;;;;;17.00;12.18;;;18.80;30.80;;;;;;6119706;22;98604;-73
2022/03/23 11:52:02;;;;;;;15.48;9.70;;;18.90;30.00;;;;;;6121919;22;97955;-73
2022/03/23 11:57:54;;;;;;;16.35;11.45;;;18.80;30.10;;;;;;6119144;23;101875;-72
2022/03/23 12:00:26;;;;;;;19.58;11.80;;;18.80;29.20;;;;;;6120602;23;99199;-72
2022/03/23 12:02:57;;;;;;;16.45;13.15;;;18.80;29.80;;;;;;6119890;23;98477;-72
2022/03/23 12:05:25;;;;;;;16.92;10.20;;;18.90;30.00;;;;;;6120577;22;99142;-72
2022/03/23 12:07:52;;;;;;;16.00;10.30;;;18.90;29.70;;;;;;6120775;22;98929;-72
2022/03/23 12:10:25;;;;;;;16.17;10.27;;;19.00;29.60;;;;;;6120877;23;98479;-72
2022/03/23 12:12:52;;;;;;;12.90;10.10;;;19.10;29.80;;;;;;6121495;22;98388;-72
2022/03/23 12:15:30;;;;;;;15.73;9.57;;;19.00;29.60;;;;;;6120558;23;99231;-72
2022/03/23 12:17:59;;;;;;;18.83;10.65;;;19.10;29.70;;;;;;6120439;23;99128;-72
2022/03/23 12:20:32;;;;;;;14.73;11.00;;;19.00;30.00;;;;;;6119279;23;98460;-72
2022/03/23 12:23:36;;;;;;;16.95;11.15;;;19.00;30.00;;;;;;6121516;22;98908;-72
2022/03/23 12:26:16;;;;;;;15.60;10.60;;;19.20;29.60;;;;;;6120363;23;100046;-72
2022/03/23 12:28:59;;;;;;;17.70;11.40;;;19.20;30.30;;;;;;6120883;22;99708;-72
2022/03/23 12:31:39;;;;;;;14.75;10.75;;;19.20;30.00;;;;;;6119703;23;98449;-73
2022/03/23 12:34:08;;;;;;;15.40;9.88;;;19.20;30.00;;;;;;6121292;22;98446;-72
2022/03/23 12:36:57;;;;;;;14.98;10.90;;;19.20;30.50;;;;;;6119500;23;100311;-72
2022/03/23 12:39:29;;;;;;;18.15;11.57;;;19.20;30.50;;;;;;6120529;22;100435;-72
2022/03/23 12:41:59;;;;;;;20.00;12.75;;;19.30;30.00;;;;;;6119135;23;98534;-72
2022/03/23 12:44:32;;;;;;;15.80;11.52;;;19.30;30.30;;;;;;6119799;23;97864;-72
2022/03/23 12:47:05;;;;;;;18.40;10.95;;;19.30;30.30;;;;;;6120957;22;99295;-72
2022/03/23 12:58:17;;;;;;;14.13;10.13;;;19.30;30.20;;;;;;6118611;23;99007;-72
2022/03/23 13:00:47;;;;;;;12.50;8.70;;;19.30;31.00;;;;;;6118985;23;101412;-73
2022/03/23 13:03:22;;;;;;;16.33;9.05;;;19.30;30.40;;;;;;6119842;23;98438;-72
2022/03/23 13:05:57;;;;;;;15.63;9.18;;;19.40;30.40;;;;;;6121833;23;98459;-72
2022/03/23 13:08:27;;;;;;;14.70;10.13;;;19.40;30.00;;;;;;6119425;23;101702;-72
2022/03/23 13:10:59;;;;;;;14.18;11.23;;;19.40;30.80;;;;;;6120943;23;98816;-72
2022/03/23 13:13:27;;;;;;;18.23;11.23;;;19.40;30.50;;;;;;6119052;23;98569;-72
2022/03/23 13:15:54;;;;;;;17.25;10.90;;;19.50;30.60;;;;;;6119151;23;98491;-72
2022/03/23 13:18:29;;;;;;;19.52;10.45;;;19.50;30.70;;;;;;6118057;23;100033;-72
2022/03/23 13:20:58;;;;;;;13.95;8.10;;;19.60;30.60;;;;;;6069764;23;102359;-72
2022/03/23 13:23:26;;;;;;;24.42;9.80;;;19.50;30.60;;;;;;6119864;23;98474;-72